createdAt,value
2022-11-20T00:06:16.783Z,1015.8745886734151
2022-11-20T00:13:03.991Z,1015.8936946119301
2022-11-20T00:19:31.966Z,1015.8411977081139
2022-11-20T00:26:02.008Z,1015.7953373584344
2022-11-20T00:32:29.551Z,1015.7738828124182
2022-11-20T00:39:02.719Z,1015.7846478544675
2022-11-20T00:45:37.534Z,1015.7588665165844
2022-11-20T00:52:06.694Z,1015.7506216251703
2022-11-20T00:58:36.249Z,1015.7445462364758
2022-11-20T01:27:05.280Z,1015.5288979696136
2022-11-20T01:33:36.511Z,1015.4912889353551
2022-11-20T01:42:50.556Z,1015.3967669274668
2022-11-20T01:49:47.498Z,1015.3440369548254
2022-11-20T02:03:04.771Z,1015.2813189080994
2022-11-20T02:31:50.206Z,1014.9537453865416
2022-11-20T02:38:22.455Z,1014.9373410142986
2022-11-20T02:44:54.694Z,1014.8798167542899
2022-11-20T02:53:30.530Z,1014.8390590834881
2022-11-20T03:05:41.497Z,1014.7984494700229
2022-11-20T03:12:11.406Z,1014.7687021039783
2022-11-20T03:18:41.933Z,1014.6756425424114
2022-11-20T03:29:11.638Z,1014.5662906829756
2022-11-20T03:35:44.744Z,1014.4731052556413
2022-11-20T03:44:45.112Z,1014.5047671846212
2022-11-20T03:51:14.624Z,1014.4171773213138
2022-11-20T04:03:34.669Z,1014.2765195418874
2022-11-20T04:11:09.088Z,1014.2219029138514
2022-11-20T04:17:41.174Z,1014.2518298148539
2022-11-20T04:25:44.150Z,1014.1580599191208
2022-11-20T04:32:14.963Z,1014.1510728198178
2022-11-20T04:44:05.948Z,1014.1160593275658
2022-11-20T04:56:19.577Z,1014.0792319518071
2022-11-20T05:02:49.487Z,1014.052847324054
2022-11-20T05:09:35.878Z,1014.0193257100824
2022-11-20T05:20:22.222Z,1014.0408573899166
2022-11-20T05:26:55.561Z,1013.9802239786175
2022-11-20T05:33:23.732Z,1013.9550551243814
2022-11-20T05:39:57.495Z,1013.910262522364
2022-11-20T05:54:23.750Z,1013.9049977951498
2022-11-20T06:00:54.358Z,1013.9045504285178
2022-11-20T06:07:23.986Z,1013.7857364519174
2022-11-20T06:13:54.568Z,1013.7621138897872
2022-11-20T06:20:25.486Z,1013.6924668880539
2022-11-20T06:26:57.249Z,1013.6060406337716
2022-11-20T06:33:30.269Z,1013.5920048283198
2022-11-20T06:45:11.239Z,1013.5937899230428
2022-11-20T06:57:09.933Z,1013.5321003081837
2022-11-20T07:03:42.540Z,1013.4894842470172
2022-11-20T07:15:59.793Z,1013.2916598877457
2022-11-20T07:22:28.464Z,1013.4796214938008
2022-11-20T07:28:58.457Z,1013.5354443846351
2022-11-20T07:36:27.721Z,1013.5726023625764
2022-11-20T07:51:34.307Z,1013.5109086261615
2022-11-20T08:08:42.414Z,1013.4668361458139
2022-11-20T08:15:13.265Z,1013.5488352394391
2022-11-20T08:24:54.238Z,1013.592740376031
2022-11-20T08:40:27.767Z,1013.6244486754738
2022-11-20T08:46:55.615Z,1013.6515088115364
2022-11-20T08:53:23.377Z,1013.6489158214735
2022-11-20T09:00:05.490Z,1013.5973445276711
2022-11-20T09:06:34.872Z,1013.6168737219756
2022-11-20T09:13:13.542Z,1013.6534951120493
2022-11-20T09:32:24.752Z,1013.6547097241954
2022-11-20T09:38:51.920Z,1013.6325907219843
2022-11-20T09:45:21.764Z,1013.6547645678197
2022-11-20T09:52:17.863Z,1013.6127332881243
2022-11-20T09:58:54.861Z,1013.5656413496095
2022-11-20T10:21:44.395Z,1013.5380970664427
2022-11-20T10:37:45.022Z,1013.4182084125667
2022-11-20T10:44:18.989Z,1013.3237739495696
2022-11-20T10:56:23.884Z,1013.2944963391323
2022-11-20T11:09:48.079Z,1013.2615440648012
2022-11-20T11:16:28.478Z,1013.1215243434026
2022-11-20T11:26:34.183Z,1013.1098181598759
2022-11-20T11:33:04.054Z,1013.0448226794074
2022-11-20T11:42:32.932Z,1012.9695929965559
2022-11-20T11:51:41.538Z,1012.9262547443203
2022-11-20T11:58:08.708Z,1012.9041875094143
2022-11-20T12:13:54.383Z,1012.8345266328791
2022-11-20T12:25:59.486Z,1012.8037274200314
2022-11-20T12:48:00.434Z,1012.7190938056264
2022-11-20T12:54:31.011Z,1012.7577877444531
2022-11-20T13:08:44.683Z,1012.6824230748142
2022-11-20T13:15:14.241Z,1012.6351639890448
2022-11-20T13:21:47.125Z,1012.5439980166102
2022-11-20T13:28:19.105Z,1012.4988243970561
2022-11-20T13:34:49.024Z,1012.4231664301725
2022-11-20T13:41:20.811Z,1012.3888560720006
2022-11-20T13:47:52.589Z,1012.4300626754009
2022-11-20T13:54:25.435Z,1012.3762460296521
2022-11-20T14:00:59.022Z,1012.2873685772768
2022-11-20T14:07:28.175Z,1012.2024814975877
2022-11-20T14:14:11.261Z,1012.1529074982827
2022-11-20T14:20:39.055Z,1012.0978395174025
2022-11-20T14:27:07.860Z,1012.0650531610255
2022-11-20T14:33:37.058Z,1011.9968198673191
2022-11-20T14:40:06.151Z,1011.8973598347367
2022-11-20T14:48:29.995Z,1011.7335452921735
2022-11-20T15:01:16.193Z,1011.6003181288672
2022-11-20T15:07:45.652Z,1011.6602381575203
2022-11-20T15:25:21.808Z,1011.4681431801482
2022-11-20T15:31:50.181Z,1011.4107365989793
2022-11-20T15:42:04.252Z,1011.2416980836258
2022-11-20T15:48:32.251Z,1011.1719265519198
2022-11-20T15:55:00.691Z,1011.123348869694
2022-11-20T16:03:10.626Z,1010.9096799819761
2022-11-20T16:09:50.392Z,1010.8330905609336
2022-11-20T16:18:11.952Z,1010.8245160031048
2022-11-20T16:29:00.110Z,1010.741401805045
2022-11-20T16:38:35.046Z,1010.7809392041422
2022-11-20T16:52:01.449Z,1010.7185216575037
2022-11-20T16:58:31.013Z,1010.769058521623
2022-11-20T17:06:22.067Z,1010.7831795285991
2022-11-20T17:12:51.834Z,1010.7920960673489
2022-11-20T17:23:36.798Z,1010.674292919671
2022-11-20T17:36:29.151Z,1010.5005079973888
2022-11-20T17:42:59.464Z,1010.4176057024786
2022-11-20T17:51:26.098Z,1010.42297518426
2022-11-20T18:13:47.616Z,1010.146423463787
2022-11-20T18:20:31.062Z,1010.139845306827
2022-11-20T18:33:28.103Z,1010.0665156067155
2022-11-20T18:46:59.117Z,1009.948979924572
2022-11-20T18:53:27.782Z,1009.8068670215101
2022-11-20T18:59:56.223Z,1009.7708238462981
2022-11-20T19:12:35.675Z,1009.6534036284853
2022-11-20T19:28:34.163Z,1009.4795754391984
2022-11-20T19:41:23.464Z,1009.3726915637982
2022-11-20T19:48:08.278Z,1009.287149161944
2022-11-20T20:06:02.211Z,1009.1473548676515
2022-11-20T20:12:44.506Z,1009.1059468196221
2022-11-20T20:19:13.586Z,1009.0370147482838
2022-11-20T20:25:42.607Z,1009.0627047342039
2022-11-20T20:32:11.900Z,1009.0396490115418
2022-11-20T20:38:46.368Z,1008.9584615912476
2022-11-20T20:50:00.974Z,1008.8881548086732
2022-11-20T20:56:31.036Z,1008.9508058005949
2022-11-20T21:03:02.621Z,1008.9414672800217
2022-11-20T21:18:02.666Z,1008.7904278484573
2022-11-20T21:24:39.067Z,1008.7631109107658
2022-11-20T21:31:17.422Z,1008.7812906503656
2022-11-20T21:37:51.840Z,1008.7499598926463
2022-11-20T21:44:40.982Z,1008.7121444289642
2022-11-20T21:51:12.287Z,1008.7315866435578
2022-11-20T21:57:42.659Z,1008.6934182152423
2022-11-20T22:04:13.405Z,1008.6192975808107
2022-11-20T22:10:50.904Z,1008.5344820154537
2022-11-20T22:32:44.755Z,1008.3104672070987
2022-11-20T22:39:15.666Z,1008.2939951779075
2022-11-20T22:51:43.934Z,1008.264573193222
2022-11-20T22:58:18.853Z,1008.2935105351097
2022-11-20T23:10:19.217Z,1008.3145936339055
2022-11-20T23:18:07.883Z,1008.2659656634137
2022-11-20T23:27:54.963Z,1008.1401323299076
2022-11-20T23:34:22.416Z,1008.1755883536538
2022-11-20T23:44:09.835Z,1008.2093261437318
2022-11-20T23:50:37.168Z,1008.1773870784679
2022-11-20T23:57:04.614Z,1008.158735203824
